Time;durP1;ratioP1;P1;durP2;ratioP2;P2;SDS_P1;SDS_P2;PMS_P1;PMS_P2;Temp;Humidity;BMP_temperature;BMP_pressure;BME280_temperature;BME280_humidity;BME280_pressure;Samples;Min_cycle;Max_cycle;Signal;HPM_P1;HPM_P2
2023/11/18 00:01:42;;;;;;;2.20;1.50;;;6.20;99.90;;;;;;5025475;28;20080;-79
2023/11/18 00:04:15;;;;;;;2.15;1.30;;;6.20;99.90;;;;;;5020333;28;20141;-80
2023/11/18 00:06:46;;;;;;;3.38;1.23;;;6.30;99.90;;;;;;5019648;28;20495;-80
2023/11/18 00:09:14;;;;;;;1.77;1.15;;;6.30;99.90;;;;;;5018919;28;20092;-77
2023/11/18 00:11:44;;;;;;;2.35;1.42;;;6.40;99.90;;;;;;5020826;28;20046;-80
2023/11/18 00:14:11;;;;;;;2.50;1.02;;;6.40;99.90;;;;;;5015431;28;20057;-79
2023/11/18 00:16:38;;;;;;;1.38;1.20;;;6.40;99.90;;;;;;5025836;28;20049;-79
2023/11/18 00:19:05;;;;;;;2.53;1.48;;;6.40;99.90;;;;;;5023614;28;20096;-80
2023/11/18 00:21:32;;;;;;;3.00;1.17;;;6.40;99.90;;;;;;5003690;28;20057;-77
2023/11/18 00:23:59;;;;;;;3.88;1.50;;;6.40;99.90;;;;;;5021021;28;20050;-79
2023/11/18 00:26:26;;;;;;;4.05;1.30;;;6.40;99.90;;;;;;4997874;28;20104;-79
2023/11/18 00:28:53;;;;;;;2.22;1.27;;;6.40;99.90;;;;;;5023232;28;20457;-79
2023/11/18 00:31:20;;;;;;;2.78;1.27;;;6.40;99.90;;;;;;5026637;28;20128;-80
2023/11/18 00:33:46;;;;;;;1.70;1.38;;;6.40;99.90;;;;;;5005692;28;20045;-79
2023/11/18 00:36:13;;;;;;;4.53;2.38;;;6.40;99.90;;;;;;5002962;28;20056;-79
2023/11/18 00:38:40;;;;;;;3.90;1.70;;;6.30;99.90;;;;;;5023265;28;20096;-80
2023/11/18 00:41:07;;;;;;;3.05;1.17;;;6.40;99.90;;;;;;5019763;28;20126;-79
2023/11/18 00:43:34;;;;;;;5.10;1.33;;;6.30;99.90;;;;;;5021423;28;20075;-80
2023/11/18 00:46:03;;;;;;;1.38;1.08;;;6.30;99.90;;;;;;5025572;28;20514;-80
2023/11/18 00:48:30;;;;;;;2.55;1.73;;;6.30;99.90;;;;;;5028009;28;20556;-80
2023/11/18 00:50:57;;;;;;;3.35;1.20;;;6.30;99.90;;;;;;5018543;28;20042;-79
2023/11/18 00:53:24;;;;;;;3.22;1.17;;;6.20;99.90;;;;;;5013819;28;20042;-80
2023/11/18 00:55:51;;;;;;;1.88;1.10;;;6.10;99.90;;;;;;5001519;28;20042;-80
2023/11/18 00:58:17;;;;;;;1.95;1.30;;;6.10;99.90;;;;;;5023059;28;20054;-80
2023/11/18 01:00:44;;;;;;;1.85;1.30;;;6.10;99.90;;;;;;5010261;28;20100;-80
2023/11/18 01:03:11;;;;;;;2.05;1.20;;;6.10;99.90;;;;;;5005552;28;20057;-79
2023/11/18 01:05:38;;;;;;;4.70;1.40;;;6.10;99.90;;;;;;5002334;28;20046;-80
2023/11/18 01:08:05;;;;;;;3.60;1.42;;;6.10;99.90;;;;;;5003104;28;20050;-79
2023/11/18 01:10:32;;;;;;;1.92;1.40;;;6.10;99.90;;;;;;5019785;28;20054;-80
2023/11/18 01:12:59;;;;;;;4.03;1.48;;;6.10;99.90;;;;;;5022006;28;20069;-80
2023/11/18 01:15:26;;;;;;;3.30;1.27;;;6.10;99.90;;;;;;5008781;28;20049;-80
2023/11/18 01:17:52;;;;;;;1.67;1.15;;;6.10;99.90;;;;;;5024593;28;20080;-78
2023/11/18 01:20:21;;;;;;;3.75;1.48;;;6.10;99.90;;;;;;5021044;28;20108;-80
2023/11/18 01:22:49;;;;;;;2.72;1.65;;;6.10;99.90;;;;;;5019042;28;20054;-78
2023/11/18 01:25:17;;;;;;;2.20;1.30;;;6.10;99.90;;;;;;5018939;28;20050;-78
2023/11/18 01:27:47;;;;;;;1.77;1.20;;;6.10;99.90;;;;;;5025048;28;20107;-79
2023/11/18 01:30:14;;;;;;;;;;;6.10;99.90;;;;;;5023993;28;20054;-79
2023/11/18 01:32:41;;;;;;;3.38;1.50;;;6.10;99.90;;;;;;5019032;28;20300;-79
2023/11/18 01:35:10;;;;;;;1.48;1.30;;;6.10;99.90;;;;;;5019993;28;20100;-80
2023/11/18 01:37:38;;;;;;;4.95;1.50;;;6.00;99.90;;;;;;5020376;28;20096;-80
2023/11/18 01:40:07;;;;;;;2.28;1.48;;;6.00;99.90;;;;;;5017959;28;20046;-79
2023/11/18 01:42:34;;;;;;;3.53;1.25;;;6.00;99.90;;;;;;5026952;28;20053;-80
2023/11/18 01:45:03;;;;;;;2.00;1.20;;;6.00;99.90;;;;;;5023442;28;20052;-79
2023/11/18 01:47:34;;;;;;;3.50;1.08;;;6.10;99.90;;;;;;5023556;28;20056;-78
2023/11/18 01:50:02;;;;;;;;;;;6.10;99.90;;;;;;5015594;28;20050;-80
2023/11/18 01:52:30;;;;;;;3.17;1.48;;;6.10;99.90;;;;;;5020174;28;19922;-79
2023/11/18 01:54:58;;;;;;;1.95;1.40;;;6.10;99.90;;;;;;5016952;28;20125;-79
2023/11/18 01:57:26;;;;;;;3.92;1.83;;;6.10;99.90;;;;;;5024875;28;20046;-78
2023/11/18 01:59:54;;;;;;;2.97;1.15;;;6.10;99.90;;;;;;5003612;28;20113;-79
2023/11/18 02:02:21;;;;;;;2.95;1.10;;;6.10;99.90;;;;;;5020720;28;20065;-80
2023/11/18 02:04:49;;;;;;;9.05;1.20;;;6.00;99.90;;;;;;5019764;28;20417;-78
2023/11/18 02:07:16;;;;;;;3.75;1.20;;;6.00;99.90;;;;;;5017652;28;20049;-79
2023/11/18 02:09:43;;;;;;;2.28;0.98;;;6.00;99.90;;;;;;5019914;28;20037;-79
2023/11/18 02:12:26;;;;;;;3.30;1.23;;;6.00;99.90;;;;;;5022772;28;20045;-79
2023/11/18 02:14:55;;;;;;;4.82;1.13;;;6.00;99.90;;;;;;5020896;28;20104;-79
2023/11/18 02:17:25;;;;;;;4.45;1.10;;;6.00;99.90;;;;;;5020487;28;20498;-79
2023/11/18 02:19:56;;;;;;;2.72;1.15;;;6.00;99.90;;;;;;4995762;28;20052;-79
2023/11/18 02:22:25;;;;;;;4.65;1.42;;;6.00;99.90;;;;;;5014544;28;20054;-79
2023/11/18 02:24:53;;;;;;;2.78;1.50;;;6.00;99.90;;;;;;5023410;28;20519;-79
2023/11/18 02:27:21;;;;;;;2.78;1.50;;;6.00;99.90;;;;;;5004457;28;20049;-79
2023/11/18 02:29:50;;;;;;;3.05;1.30;;;5.90;99.90;;;;;;5001982;28;20069;-79
2023/11/18 02:32:30;;;;;;;3.70;1.38;;;5.90;99.90;;;;;;5020099;28;20088;-78
2023/11/18 02:35:05;;;;;;;2.45;1.17;;;5.90;99.90;;;;;;5017058;28;20120;-78
2023/11/18 02:37:33;;;;;;;2.03;1.48;;;5.90;99.90;;;;;;5020126;28;20125;-80
2023/11/18 02:40:14;;;;;;;2.10;1.50;;;5.90;99.90;;;;;;5005325;28;20056;-79
2023/11/18 02:42:42;;;;;;;2.35;1.40;;;5.90;99.90;;;;;;5005028;28;20521;-79
2023/11/18 02:45:15;;;;;;;1.58;1.33;;;5.80;99.90;;;;;;5019630;28;20050;-79
2023/11/18 02:47:43;;;;;;;1.65;1.30;;;5.80;99.90;;;;;;5019260;28;20053;-79
2023/11/18 02:50:13;;;;;;;1.15;1.05;;;5.80;99.90;;;;;;4999182;28;20053;-79
2023/11/18 02:52:40;;;;;;;2.35;1.35;;;5.80;99.90;;;;;;5009396;28;20093;-79
2023/11/18 02:55:08;;;;;;;1.38;1.20;;;5.80;99.90;;;;;;5022731;28;20520;-80
2023/11/18 02:57:36;;;;;;;4.65;1.13;;;5.70;99.90;;;;;;5022524;28;20088;-80
2023/11/18 03:00:11;;;;;;;2.30;1.20;;;5.70;99.90;;;;;;5023305;28;20053;-79
2023/11/18 03:02:39;;;;;;;1.70;1.50;;;5.70;99.90;;;;;;5018093;28;20080;-79
2023/11/18 03:05:07;;;;;;;3.72;1.40;;;5.70;99.90;;;;;;5018276;28;20050;-79
2023/11/18 03:07:34;;;;;;;2.83;1.35;;;5.70;99.90;;;;;;5020514;28;20137;-79
2023/11/18 03:10:01;;;;;;;6.40;1.50;;;5.70;99.90;;;;;;5023087;28;20510;-79
2023/11/18 03:12:28;;;;;;;3.40;1.38;;;5.60;99.90;;;;;;5003392;28;20045;-79
2023/11/18 03:14:55;;;;;;;3.25;1.30;;;5.60;99.90;;;;;;5003044;28;20064;-79
2023/11/18 03:17:22;;;;;;;1.40;1.10;;;5.60;99.90;;;;;;5000266;28;20046;-79
2023/11/18 03:19:50;;;;;;;3.35;1.27;;;5.60;99.90;;;;;;5005535;28;20050;-79
2023/11/18 03:22:17;;;;;;;6.55;1.70;;;5.60;99.90;;;;;;5022802;28;20429;-79
2023/11/18 03:24:44;;;;;;;2.38;1.40;;;5.60;99.90;;;;;;5007965;28;20058;-79
2023/11/18 03:27:10;;;;;;;1.88;1.10;;;5.60;99.90;;;;;;5022379;28;20112;-79
2023/11/18 03:29:37;;;;;;;1.65;1.30;;;5.60;99.90;;;;;;5022498;28;20553;-79
2023/11/18 03:32:05;;;;;;;5.30;1.20;;;5.60;99.90;;;;;;5019129;28;20049;-79
2023/11/18 03:34:32;;;;;;;2.72;1.35;;;5.60;99.90;;;;;;4990345;28;20052;-79
2023/11/18 03:36:59;;;;;;;3.97;1.42;;;5.60;99.90;;;;;;5004561;28;20536;-79
2023/11/18 03:39:27;;;;;;;2.13;1.38;;;5.60;99.90;;;;;;5020397;28;20054;-77
2023/11/18 03:41:56;;;;;;;4.95;1.50;;;5.50;99.90;;;;;;5020965;28;20042;-79
2023/11/18 03:44:26;;;;;;;2.72;1.20;;;5.50;99.90;;;;;;5018711;28;20053;-79
2023/11/18 03:46:53;;;;;;;6.45;2.60;;;5.50;99.90;;;;;;5011209;28;20509;-79
2023/11/18 03:49:20;;;;;;;4.07;1.38;;;5.50;99.90;;;;;;5019142;28;20442;-79
2023/11/18 03:51:47;;;;;;;3.30;1.48;;;5.50;99.90;;;;;;5029110;28;20095;-79
2023/11/18 03:54:14;;;;;;;3.15;1.70;;;5.50;99.90;;;;;;5024867;28;20046;-79
2023/11/18 03:56:41;;;;;;;3.25;1.55;;;5.50;99.90;;;;;;5027082;28;20472;-79
2023/11/18 03:59:09;;;;;;;3.42;1.48;;;5.50;99.90;;;;;;5026063;28;20077;-78
2023/11/18 04:01:36;;;;;;;2.25;1.30;;;5.50;99.90;;;;;;5022237;28;20138;-79
2023/11/18 04:04:04;;;;;;;2.63;1.40;;;5.50;99.90;;;;;;5004384;28;20088;-79
2023/11/18 04:06:31;;;;;;;4.75;1.73;;;5.50;99.90;;;;;;5025786;28;20080;-79
2023/11/18 04:08:57;;;;;;;3.58;1.70;;;5.50;99.90;;;;;;5025408;28;20041;-78
2023/11/18 04:11:24;;;;;;;2.75;1.73;;;5.40;99.90;;;;;;5022744;28;20490;-79
2023/11/18 04:13:51;;;;;;;3.85;1.52;;;5.40;99.90;;;;;;5022434;28;20080;-79
2023/11/18 04:16:18;;;;;;;3.00;1.60;;;5.40;99.90;;;;;;5019683;28;20418;-79
2023/11/18 04:18:46;;;;;;;2.80;1.83;;;5.40;99.90;;;;;;5021639;28;20111;-79
2023/11/18 04:21:13;;;;;;;3.88;2.10;;;5.50;99.90;;;;;;5025488;28;20081;-79
2023/11/18 04:23:41;;;;;;;3.50;1.60;;;5.50;99.90;;;;;;5024430;28;20049;-79
2023/11/18 04:26:08;;;;;;;3.08;1.73;;;5.50;99.90;;;;;;5021638;28;20054;-80
2023/11/18 04:28:36;;;;;;;1.77;1.45;;;5.50;99.90;;;;;;4999271;28;20101;-78
2023/11/18 04:31:04;;;;;;;2.72;1.52;;;5.50;99.90;;;;;;5020935;28;20042;-80
2023/11/18 04:33:33;;;;;;;6.28;1.73;;;5.60;99.90;;;;;;5021643;28;20498;-79
2023/11/18 04:36:00;;;;;;;4.35;1.73;;;5.60;99.90;;;;;;5025965;28;20499;-79
2023/11/18 04:38:27;;;;;;;5.88;1.30;;;5.60;99.90;;;;;;5022685;28;20567;-79
2023/11/18 04:40:54;;;;;;;4.65;1.77;;;5.60;99.90;;;;;;5022967;28;20398;-79
2023/11/18 04:43:24;;;;;;;1.75;1.40;;;5.60;99.90;;;;;;5020213;28;20100;-79
2023/11/18 04:46:05;;;;;;;1.58;1.20;;;5.60;99.90;;;;;;5018068;28;20145;-79
2023/11/18 04:48:33;;;;;;;1.63;1.10;;;5.70;99.90;;;;;;5007505;28;20057;-79
2023/11/18 04:51:00;;;;;;;3.97;1.15;;;5.70;99.90;;;;;;5006150;28;20107;-79
2023/11/18 04:53:27;;;;;;;3.22;1.35;;;5.70;99.90;;;;;;5004951;28;20080;-79
2023/11/18 04:55:54;;;;;;;3.80;1.50;;;5.80;99.90;;;;;;5021395;28;20095;-77
2023/11/18 04:58:21;;;;;;;5.28;2.13;;;5.80;99.90;;;;;;5019618;28;20057;-79
2023/11/18 05:00:48;;;;;;;5.00;1.80;;;5.80;99.90;;;;;;5020148;28;20049;-79
2023/11/18 05:03:16;;;;;;;3.42;1.50;;;5.80;99.90;;;;;;5026109;28;20050;-79
2023/11/18 05:05:43;;;;;;;4.78;1.50;;;5.90;99.90;;;;;;5024718;28;20053;-79
2023/11/18 05:08:20;;;;;;;3.42;1.60;;;5.90;99.90;;;;;;5021553;28;20068;-79
2023/11/18 05:10:49;;;;;;;1.85;1.08;;;5.90;99.90;;;;;;5019645;28;20088;-79
2023/11/18 05:13:17;;;;;;;2.25;1.15;;;6.00;99.90;;;;;;5018659;28;20048;-78
2023/11/18 05:15:47;;;;;;;3.00;1.10;;;6.00;99.90;;;;;;5018966;28;20046;-79
2023/11/18 05:18:14;;;;;;;2.38;1.15;;;6.00;99.90;;;;;;5025729;28;20052;-78
2023/11/18 05:20:43;;;;;;;2.15;1.10;;;6.00;99.90;;;;;;5023971;28;20474;-79
2023/11/18 05:23:10;;;;;;;4.50;1.30;;;6.00;99.90;;;;;;5021904;28;20469;-79
2023/11/18 05:25:43;;;;;;;5.50;1.60;;;6.00;99.90;;;;;;5001483;28;20046;-78
2023/11/18 05:28:10;;;;;;;4.72;1.23;;;6.00;99.90;;;;;;5014363;28;20060;-79
2023/11/18 05:30:40;;;;;;;3.00;1.13;;;6.00;99.90;;;;;;5020816;28;20042;-79
2023/11/18 05:33:08;;;;;;;6.90;1.58;;;6.00;99.90;;;;;;5025470;28;20052;-78
2023/11/18 05:35:35;;;;;;;3.03;1.60;;;6.00;99.90;;;;;;5022044;28;20068;-77
2023/11/18 05:38:06;;;;;;;3.25;1.40;;;6.00;99.90;;;;;;5021554;28;20547;-79
2023/11/18 05:40:35;;;;;;;4.32;1.30;;;6.00;99.90;;;;;;5001491;28;20520;-79
2023/11/18 05:43:06;;;;;;;4.45;1.20;;;6.00;99.90;;;;;;5017830;28;20477;-78
2023/11/18 05:45:47;;;;;;;3.45;1.20;;;6.00;99.90;;;;;;5019828;28;20129;-79
2023/11/18 05:48:14;;;;;;;2.53;1.15;;;6.00;99.90;;;;;;5021389;28;20058;-79
2023/11/18 05:50:42;;;;;;;8.25;1.50;;;5.90;99.90;;;;;;5021476;28;20106;-78
2023/11/18 05:53:10;;;;;;;3.95;1.42;;;6.00;99.90;;;;;;5019535;28;20049;-78
2023/11/18 05:55:37;;;;;;;4.13;1.17;;;6.00;99.90;;;;;;5018622;28;20128;-78
2023/11/18 05:58:04;;;;;;;20.25;1.75;;;6.00;99.90;;;;;;5016648;28;20060;-78
2023/11/18 06:00:30;;;;;;;7.78;1.33;;;6.00;99.90;;;;;;5023065;28;20123;-78
2023/11/18 06:02:58;;;;;;;2.75;1.00;;;6.00;99.90;;;;;;5024844;28;20087;-78
2023/11/18 06:05:29;;;;;;;3.92;1.08;;;6.00;99.90;;;;;;5002790;28;20076;-78
2023/11/18 06:07:57;;;;;;;;;;;6.00;99.90;;;;;;5020686;28;20088;-79
2023/11/18 06:10:25;;;;;;;4.97;1.88;;;6.00;99.90;;;;;;5000282;28;19927;-78
2023/11/18 06:12:53;;;;;;;10.55;1.55;;;6.00;99.90;;;;;;5018484;28;20556;-78
2023/11/18 06:15:22;;;;;;;2.40;1.58;;;6.00;99.90;;;;;;5024231;28;20056;-79
2023/11/18 06:17:49;;;;;;;2.65;1.42;;;6.00;99.90;;;;;;5023320;28;20046;-79
2023/11/18 06:20:17;;;;;;;8.75;1.45;;;6.00;99.90;;;;;;5020691;28;20429;-78
2023/11/18 06:22:43;;;;;;;5.25;1.63;;;6.00;99.90;;;;;;5018871;28;20132;-79
2023/11/18 06:25:12;;;;;;;4.93;1.75;;;6.10;99.90;;;;;;5013924;28;20521;-78
2023/11/18 06:27:39;;;;;;;3.70;1.60;;;6.10;99.90;;;;;;5025012;28;20053;-78
2023/11/18 06:30:06;;;;;;;4.25;1.83;;;6.10;99.90;;;;;;5010813;28;20054;-78
2023/11/18 06:32:33;;;;;;;5.55;1.75;;;6.10;99.90;;;;;;5021193;28;20045;-78
2023/11/18 06:35:01;;;;;;;4.20;1.60;;;6.10;99.90;;;;;;4999243;28;20053;-79
2023/11/18 06:37:33;;;;;;;4.07;1.52;;;6.10;99.90;;;;;;5017829;28;20045;-79
2023/11/18 06:40:00;;;;;;;5.50;1.73;;;6.20;99.90;;;;;;5016891;28;20054;-78
2023/11/18 06:42:27;;;;;;;4.30;1.40;;;6.20;99.90;;;;;;5023482;28;20053;-78
2023/11/18 06:44:54;;;;;;;2.33;1.30;;;6.20;99.90;;;;;;5005947;28;20050;-76
2023/11/18 06:47:21;;;;;;;6.35;2.60;;;6.20;99.90;;;;;;5020331;28;20050;-79
2023/11/18 06:49:48;;;;;;;5.38;2.90;;;6.20;99.90;;;;;;5000645;28;20138;-79
2023/11/18 06:52:15;;;;;;;1.50;1.20;;;6.30;99.90;;;;;;5013536;28;20046;-77
2023/11/18 06:54:42;;;;;;;5.80;2.20;;;6.30;99.90;;;;;;5015641;28;20050;-78
2023/11/18 06:57:08;;;;;;;4.40;2.20;;;6.30;99.90;;;;;;5025798;28;20052;-78
2023/11/18 06:59:35;;;;;;;2.92;1.88;;;6.30;99.90;;;;;;5003792;28;20053;-79
2023/11/18 07:02:02;;;;;;;5.00;1.90;;;6.30;99.90;;;;;;5012849;28;20068;-79
2023/11/18 07:04:31;;;;;;;4.93;2.15;;;6.30;99.90;;;;;;5018571;28;20061;-79
2023/11/18 07:06:58;;;;;;;3.17;2.30;;;6.30;99.90;;;;;;4994051;28;20471;-79
2023/11/18 07:09:25;;;;;;;4.95;2.45;;;6.30;99.90;;;;;;4998010;28;20042;-79
2023/11/18 07:11:52;;;;;;;6.70;2.03;;;6.30;99.90;;;;;;5024347;28;20049;-79
2023/11/18 07:14:19;;;;;;;3.17;1.50;;;6.30;99.90;;;;;;5021399;28;20076;-80
2023/11/18 07:16:46;;;;;;;7.50;1.63;;;6.40;99.90;;;;;;5022512;28;20057;-79
2023/11/18 07:19:23;;;;;;;5.03;2.72;;;6.40;99.90;;;;;;5018908;28;20124;-79
2023/11/18 07:21:50;;;;;;;4.50;3.67;;;6.40;99.90;;;;;;5015423;28;20107;-79
2023/11/18 07:24:17;;;;;;;5.85;4.07;;;6.50;99.90;;;;;;5019268;28;20136;-80
2023/11/18 07:26:45;;;;;;;4.97;2.40;;;6.50;99.90;;;;;;5023117;28;20469;-79
2023/11/18 07:29:12;;;;;;;5.55;3.35;;;6.60;99.90;;;;;;5023465;28;20049;-80
2023/11/18 07:31:38;;;;;;;4.43;2.85;;;6.60;99.90;;;;;;5019356;28;20050;-80
2023/11/18 07:34:05;;;;;;;4.75;2.78;;;6.60;99.90;;;;;;5019391;28;20041;-80
2023/11/18 07:36:33;;;;;;;4.60;2.88;;;6.70;99.90;;;;;;5000137;28;20045;-80
2023/11/18 07:39:03;;;;;;;3.22;2.40;;;6.70;99.90;;;;;;5021883;28;20615;-80
2023/11/18 07:41:33;;;;;;;6.15;2.90;;;6.80;99.90;;;;;;5004156;28;20045;-80
2023/11/18 07:44:00;;;;;;;5.75;2.17;;;6.80;99.90;;;;;;5002787;28;20101;-79
2023/11/18 07:46:30;;;;;;;3.35;1.90;;;6.80;99.90;;;;;;5019520;28;20046;-80
2023/11/18 07:48:57;;;;;;;5.82;3.35;;;6.90;99.90;;;;;;5019050;28;20056;-79
2023/11/18 07:51:24;;;;;;;8.43;6.10;;;6.90;99.90;;;;;;4998583;28;20476;-80
2023/11/18 07:53:52;;;;;;;14.73;8.30;;;6.90;99.90;;;;;;5019688;28;20069;-79
2023/11/18 07:56:22;;;;;;;9.02;6.82;;;6.90;99.90;;;;;;5023226;28;20041;-80
2023/11/18 07:58:50;;;;;;;17.20;8.30;;;6.90;99.90;;;;;;5021578;28;20042;-80
2023/11/18 08:01:18;;;;;;;5.25;4.07;;;7.00;99.90;;;;;;5018775;28;20049;-80
2023/11/18 08:03:44;;;;;;;7.57;5.15;;;7.00;99.90;;;;;;4999414;28;20050;-79
2023/11/18 08:06:12;;;;;;;9.05;4.35;;;7.10;99.90;;;;;;4999563;28;20050;-80
2023/11/18 08:08:39;;;;;;;10.75;4.28;;;7.10;99.90;;;;;;5006068;28;20053;-81
2023/11/18 08:11:06;;;;;;;6.40;3.53;;;7.20;99.90;;;;;;5019991;28;20092;-80
2023/11/18 08:13:33;;;;;;;4.15;1.83;;;7.20;99.90;;;;;;5020271;28;20049;-80
2023/11/18 08:16:01;;;;;;;5.82;2.40;;;7.30;99.90;;;;;;5019361;28;20073;-80
2023/11/18 08:18:30;;;;;;;2.55;2.03;;;7.30;99.90;;;;;;5017291;28;20042;-80
2023/11/18 08:21:00;;;;;;;6.55;2.90;;;7.40;99.90;;;;;;5017681;28;20155;-78
2023/11/18 08:23:31;;;;;;;6.75;2.85;;;7.40;99.90;;;;;;5023880;28;20049;-80
2023/11/18 08:25:58;;;;;;;4.82;3.33;;;7.50;99.90;;;;;;5005017;28;20045;-80
2023/11/18 08:28:25;;;;;;;5.90;3.95;;;7.60;99.90;;;;;;5020386;28;20122;-80
2023/11/18 08:30:52;;;;;;;4.72;2.80;;;7.60;99.90;;;;;;4999660;28;20088;-80
2023/11/18 08:33:20;;;;;;;4.43;2.78;;;7.70;99.90;;;;;;4995027;28;20106;-79
2023/11/18 08:35:48;;;;;;;4.57;3.10;;;7.80;99.90;;;;;;5005765;28;20046;-81
2023/11/18 08:38:15;;;;;;;6.18;3.17;;;7.90;99.90;;;;;;5008766;28;20107;-78
2023/11/18 08:40:42;;;;;;;6.10;3.08;;;8.00;99.90;;;;;;5023258;28;20073;-80
2023/11/18 08:43:11;;;;;;;3.50;1.90;;;8.10;99.90;;;;;;5023686;28;20053;-81
2023/11/18 08:45:39;;;;;;;4.10;2.35;;;8.10;99.90;;;;;;5020705;28;20085;-78
2023/11/18 08:48:07;;;;;;;4.55;2.30;;;8.20;99.90;;;;;;5019827;28;20054;-78
2023/11/18 08:50:38;;;;;;;3.88;2.67;;;8.20;99.90;;;;;;5021684;28;20105;-80
2023/11/18 08:53:05;;;;;;;6.45;3.08;;;8.30;99.90;;;;;;5026848;28;20053;-80
2023/11/18 08:55:39;;;;;;;3.42;2.35;;;8.40;99.90;;;;;;5004692;28;20042;-79
2023/11/18 08:58:18;;;;;;;8.13;3.00;;;8.40;99.90;;;;;;5022588;28;20109;-80
2023/11/18 09:01:05;;;;;;;43.22;20.17;;;8.40;99.90;;;;;;5002599;28;20052;-80
2023/11/18 09:03:36;;;;;;;18.35;7.60;;;8.50;99.90;;;;;;5015790;28;20121;-80
2023/11/18 09:06:05;;;;;;;;;;;8.50;99.90;;;;;;5009440;28;20054;-79
2023/11/18 09:08:38;;;;;;;6.05;3.97;;;8.60;99.90;;;;;;5024995;28;19932;-80
2023/11/18 09:11:14;;;;;;;7.00;3.25;;;8.60;99.90;;;;;;5003249;28;20042;-79
2023/11/18 09:13:49;;;;;;;6.40;2.65;;;8.70;99.90;;;;;;5003063;28;20045;-80
2023/11/18 09:16:16;;;;;;;5.15;2.67;;;8.80;99.90;;;;;;5019608;28;20065;-80
2023/11/18 09:18:46;;;;;;;5.38;3.28;;;8.80;99.90;;;;;;5003588;28;20048;-79
2023/11/18 09:21:19;;;;;;;5.50;2.85;;;8.90;99.90;;;;;;5026763;28;20141;-78
2023/11/18 09:23:47;;;;;;;7.03;3.90;;;8.90;99.90;;;;;;5004447;28;20505;-80
2023/11/18 09:26:16;;;;;;;4.28;2.83;;;9.00;99.90;;;;;;5023208;28;20103;-80
2023/11/18 09:28:46;;;;;;;5.68;2.33;;;9.00;99.90;;;;;;5019888;28;20516;-80
2023/11/18 09:31:13;;;;;;;5.55;2.20;;;9.00;99.90;;;;;;4993942;28;20077;-79
2023/11/18 09:33:46;;;;;;;3.75;2.00;;;9.00;99.90;;;;;;5024834;28;20097;-80
2023/11/18 09:36:13;;;;;;;3.72;1.92;;;9.00;99.90;;;;;;5008189;28;20482;-81
2023/11/18 09:38:41;;;;;;;4.40;2.10;;;9.00;99.90;;;;;;5003916;28;20069;-80
2023/11/18 09:41:12;;;;;;;3.58;2.10;;;9.00;99.90;;;;;;5021632;28;20049;-80
2023/11/18 09:43:47;;;;;;;5.70;2.72;;;9.00;99.90;;;;;;5018488;28;20046;-78
2023/11/18 09:46:26;;;;;;;6.50;2.60;;;9.00;99.90;;;;;;5017870;28;20108;-80
2023/11/18 09:49:33;;;;;;;6.28;2.90;;;8.90;99.90;;;;;;5022760;28;20065;-79
2023/11/18 09:52:04;;;;;;;5.85;2.38;;;8.80;99.90;;;;;;5022620;28;20433;-80
2023/11/18 09:55:19;;;;;;;6.35;2.25;;;8.70;99.90;;;;;;5003560;28;20068;-80
2023/11/18 09:57:57;;;;;;;3.85;2.47;;;8.60;99.90;;;;;;4937246;29;20047;-80
2023/11/18 10:00:26;;;;;;;8.13;2.63;;;8.60;99.90;;;;;;4920917;29;20043;-79
2023/11/18 10:02:56;;;;;;;5.40;2.88;;;8.60;99.90;;;;;;4987668;28;20049;-79
2023/11/18 10:05:26;;;;;;;8.15;3.90;;;8.60;99.90;;;;;;5006118;28;20052;-80
2023/11/18 10:07:54;;;;;;;10.18;3.80;;;8.60;99.90;;;;;;5022071;28;20041;-79
2023/11/18 10:10:21;;;;;;;7.68;4.32;;;8.70;99.90;;;;;;5021662;28;20064;-80
2023/11/18 10:12:52;;;;;;;8.13;3.83;;;8.70;99.90;;;;;;5018999;28;20082;-80
2023/11/18 10:15:24;;;;;;;8.38;3.80;;;8.70;99.90;;;;;;5020818;28;20403;-80
2023/11/18 10:17:59;;;;;;;4.68;3.85;;;8.70;99.90;;;;;;5029979;28;20102;-78
2023/11/18 10:20:38;;;;;;;9.65;4.15;;;8.80;99.90;;;;;;5015387;28;20049;-80
2023/11/18 10:23:10;;;;;;;10.27;5.10;;;8.80;99.90;;;;;;5021232;28;20488;-80
2023/11/18 10:25:46;;;;;;;15.32;5.10;;;8.80;99.90;;;;;;5015418;28;20042;-79
2023/11/18 10:28:32;;;;;;;7.90;4.50;;;8.90;99.90;;;;;;5018061;28;20077;-80
2023/11/18 10:31:04;;;;;;;7.43;3.60;;;8.90;99.90;;;;;;5018259;28;20100;-80
2023/11/18 10:33:31;;;;;;;8.68;3.92;;;8.90;99.90;;;;;;5024229;28;20045;-80
2023/11/18 10:36:03;;;;;;;4.22;3.20;;;8.90;99.90;;;;;;5021912;28;20073;-79
2023/11/18 10:38:31;;;;;;;5.10;3.22;;;9.00;99.90;;;;;;5020251;28;20045;-80
2023/11/18 10:41:02;;;;;;;5.22;3.20;;;9.00;99.90;;;;;;4998481;28;20046;-80
2023/11/18 10:43:29;;;;;;;6.57;2.78;;;9.00;99.90;;;;;;4992677;28;20054;-80
2023/11/18 10:46:13;;;;;;;8.23;2.70;;;9.00;99.90;;;;;;5019730;28;20410;-79
2023/11/18 10:48:50;;;;;;;8.27;2.90;;;9.00;99.90;;;;;;5023011;28;20119;-79
2023/11/18 10:51:26;;;;;;;3.55;2.50;;;9.00;99.90;;;;;;5022525;28;20095;-79
2023/11/18 10:53:58;;;;;;;3.22;2.10;;;9.00;99.90;;;;;;5017768;28;20045;-79
2023/11/18 10:56:28;;;;;;;5.80;2.67;;;9.00;99.90;;;;;;4993955;28;20124;-79
2023/11/18 10:58:58;;;;;;;7.90;2.30;;;9.00;99.90;;;;;;4993200;28;20054;-79
2023/11/18 11:01:33;;;;;;;7.72;2.35;;;9.00;99.90;;;;;;5026159;28;20120;-79
2023/11/18 11:04:04;;;;;;;7.10;2.58;;;9.10;99.90;;;;;;5021498;28;20160;-80
2023/11/18 11:06:32;;;;;;;6.28;2.80;;;9.10;99.90;;;;;;5020925;28;20057;-80
2023/11/18 11:08:59;;;;;;;4.78;2.63;;;9.10;99.90;;;;;;5018780;28;20045;-79
2023/11/18 11:11:39;;;;;;;6.70;3.10;;;9.10;99.90;;;;;;5017392;28;20092;-79
2023/11/18 11:14:08;;;;;;;7.03;2.95;;;9.10;99.90;;;;;;4989726;28;20494;-80
2023/11/18 11:16:45;;;;;;;5.85;3.72;;;9.20;99.90;;;;;;5007057;28;20553;-80
2023/11/18 11:19:37;;;;;;;5.57;3.03;;;9.20;99.90;;;;;;5023330;28;20512;-80
2023/11/18 11:22:15;;;;;;;6.50;3.38;;;9.30;99.90;;;;;;5019575;28;20050;-79
2023/11/18 11:25:11;;;;;;;7.60;3.13;;;9.30;99.90;;;;;;5014882;28;20557;-80
2023/11/18 11:28:01;;;;;;;7.00;2.85;;;9.40;99.90;;;;;;5016115;28;20490;-79
2023/11/18 11:30:49;;;;;;;5.72;2.83;;;9.40;99.90;;;;;;5000770;28;20045;-79
2023/11/18 11:33:21;;;;;;;6.43;3.10;;;9.40;99.90;;;;;;5004454;28;20544;-80
2023/11/18 11:35:57;;;;;;;5.20;2.58;;;9.50;99.90;;;;;;5019145;28;20096;-79
2023/11/18 11:38:28;;;;;;;8.50;3.83;;;9.50;99.90;;;;;;5018438;28;20053;-80
2023/11/18 11:41:00;;;;;;;8.02;4.60;;;9.60;99.90;;;;;;5016262;28;20048;-79
2023/11/18 11:43:28;;;;;;;9.48;3.80;;;9.60;99.90;;;;;;5014931;28;20071;-79
2023/11/18 11:45:55;;;;;;;7.78;3.65;;;9.70;99.90;;;;;;5021332;28;20049;-80
2023/11/18 11:48:27;;;;;;;7.05;3.72;;;9.70;99.90;;;;;;5020520;28;20050;-79
2023/11/18 11:50:57;;;;;;;7.05;3.78;;;9.80;99.90;;;;;;5019359;28;20046;-79
2023/11/18 11:53:32;;;;;;;8.93;4.55;;;9.80;99.90;;;;;;5018674;28;20045;-78
2023/11/18 11:56:06;;;;;;;8.02;4.43;;;9.80;99.90;;;;;;5012559;28;20421;-78
2023/11/18 11:58:37;;;;;;;9.00;4.80;;;9.90;99.90;;;;;;5003876;28;20132;-80
2023/11/18 12:01:19;;;;;;;7.10;4.38;;;9.90;99.90;;;;;;5022377;28;20050;-78
2023/11/18 12:03:47;;;;;;;13.05;5.97;;;9.90;99.90;;;;;;4998834;28;20054;-79
2023/11/18 12:06:23;;;;;;;11.10;6.03;;;9.90;99.90;;;;;;5022188;28;20056;-79
2023/11/18 12:08:54;;;;;;;3.78;2.30;;;10.00;99.90;;;;;;5020360;28;20523;-78
2023/11/18 12:11:22;;;;;;;6.90;2.67;;;10.00;99.90;;;;;;4995126;28;20073;-77
2023/11/18 12:17:00;;;;;;;4.75;1.20;;;10.00;99.90;;;;;;5018874;28;20064;-78
2023/11/18 12:19:32;;;;;;;3.35;1.58;;;10.00;99.90;;;;;;5020640;28;20069;-78
2023/11/18 12:22:00;;;;;;;2.17;1.10;;;10.00;99.90;;;;;;5019702;28;20552;-78
2023/11/18 12:24:29;;;;;;;4.95;1.55;;;10.10;99.90;;;;;;5018827;28;20502;-79
2023/11/18 12:26:56;;;;;;;3.45;1.00;;;10.10;99.90;;;;;;5020837;28;20068;-78
2023/11/18 12:29:40;;;;;;;5.45;1.65;;;10.00;99.90;;;;;;5026597;28;20135;-78
2023/11/18 12:32:12;;;;;;;2.53;0.68;;;10.10;99.90;;;;;;5005535;28;20050;-78
2023/11/18 12:34:53;;;;;;;2.42;0.82;;;10.10;99.90;;;;;;5020619;28;20084;-79
2023/11/18 12:37:45;;;;;;;2.53;0.90;;;10.10;99.90;;;;;;5019596;28;20511;-79
2023/11/18 12:40:32;;;;;;;3.00;1.05;;;10.10;99.90;;;;;;4997693;28;20077;-77
2023/11/18 12:43:00;;;;;;;4.57;1.13;;;10.10;99.90;;;;;;5021581;28;20050;-79
2023/11/18 12:45:50;;;;;;;5.50;1.40;;;10.10;99.90;;;;;;5023274;28;20114;-79
2023/11/18 12:48:26;;;;;;;2.42;1.10;;;10.10;99.90;;;;;;5024256;28;20140;-79
2023/11/18 12:50:55;;;;;;;2.53;0.90;;;10.10;99.90;;;;;;5019913;28;20077;-78
2023/11/18 12:53:28;;;;;;;1.92;0.70;;;10.10;99.90;;;;;;5018813;28;20065;-79
2023/11/18 12:55:55;;;;;;;4.03;0.80;;;10.10;99.90;;;;;;5002132;28;20042;-78
2023/11/18 12:58:23;;;;;;;2.63;0.88;;;10.20;99.90;;;;;;5027495;28;20423;-79
2023/11/18 13:00:50;;;;;;;2.90;0.63;;;10.10;99.90;;;;;;5022953;28;20077;-79
2023/11/18 13:03:17;;;;;;;3.80;0.55;;;10.20;99.90;;;;;;5023069;28;20104;-79
2023/11/18 13:05:45;;;;;;;2.10;0.90;;;10.20;99.90;;;;;;5018908;28;20046;-79
2023/11/18 13:08:15;;;;;;;4.43;0.80;;;10.20;99.90;;;;;;5017622;28;20058;-79
2023/11/18 13:10:43;;;;;;;1.83;0.70;;;10.20;99.90;;;;;;5019798;28;20132;-80
2023/11/18 13:13:13;;;;;;;0.80;0.50;;;10.30;99.90;;;;;;5023528;28;20058;-79
2023/11/18 13:15:40;;;;;;;2.63;0.73;;;10.30;99.90;;;;;;5021400;28;20045;-79